Frenchville, Pennsylvania
Current Conditions -  °F | °C
As of 10:54 AM on Sunday 25 Jan 2015 (Local Time) from KFIG Reporting Station
Overcast Overcast  
Wind Chill: 22°   Ceiling: 2800
Heat Index: 31°   Visibility: 9mi
Dew Point: 25°   Wind: 12mph
Humidity: 79%   Direction: 360°N
Pressure: 29.77"   Gusts: NA
Location:  41.1°N, 78.22°W
Report Text: KFIG 251554Z AUTO 36010KT 9SM FEW012 OVC028 M01/M04 A2977 RMK AO2 UPB35E38SNE35B38E50 SLP099 P0001 T10061039
Loading
Personal Weather Stations






























Interactive Weather Map New forecast layout! Learn more

10-Day Weather Forecast

Advertisements
Track Severe Weather on mobile